Time;durP1;ratioP1;P1;durP2;ratioP2;P2;SDS_P1;SDS_P2;PMS_P1;PMS_P2;Temp;Humidity;BMP_temperature;BMP_pressure;BME280_temperature;BME280_humidity;BME280_pressure;Samples;Min_cycle;Max_cycle;Signal;HPM_P1;HPM_P2
2023/09/12 00:01:15;;;;;;;9.15;7.80;;;24.50;74.50;;;;;;5094946;28;20414;-66
2023/09/12 00:03:41;;;;;;;9.55;7.13;;;24.50;74.50;;;;;;5093627;28;20039;-66
2023/09/12 00:06:06;;;;;;;9.13;7.07;;;24.50;74.50;;;;;;5092723;28;20474;-66
2023/09/12 00:08:32;;;;;;;9.23;7.60;;;24.50;74.50;;;;;;5095101;28;20040;-66
2023/09/12 00:11:11;;;;;;;9.93;7.47;;;24.50;74.50;;;;;;5093840;28;20051;-66
2023/09/12 00:13:41;;;;;;;10.35;7.80;;;24.50;74.50;;;;;;5094321;28;20052;-66
2023/09/12 00:16:06;;;;;;;9.18;7.28;;;24.50;74.50;;;;;;5094895;28;20038;-66
2023/09/12 00:18:34;;;;;;;8.98;7.18;;;24.50;74.50;;;;;;5092864;28;20040;-66
2023/09/12 00:21:00;;;;;;;9.80;7.40;;;24.50;74.50;;;;;;5105807;28;20494;-66
2023/09/12 00:23:26;;;;;;;9.50;7.60;;;24.50;74.50;;;;;;5114794;28;20047;-66
2023/09/12 00:25:52;;;;;;;9.60;7.78;;;24.50;74.50;;;;;;5114167;28;20039;-66
2023/09/12 00:28:18;;;;;;;8.30;7.40;;;24.50;74.50;;;;;;5115187;28;20057;-66
2023/09/12 00:30:43;;;;;;;8.43;7.28;;;24.50;74.50;;;;;;5114552;28;20047;-66
2023/09/12 00:33:09;;;;;;;9.43;7.10;;;24.50;74.50;;;;;;5114126;28;20084;-66
2023/09/12 00:35:35;;;;;;;9.45;7.22;;;24.50;74.50;;;;;;5114933;28;20044;-66
2023/09/12 00:38:00;;;;;;;8.95;7.03;;;24.50;74.50;;;;;;5114888;28;20062;-66
2023/09/12 00:40:26;;;;;;;8.23;7.20;;;24.50;74.50;;;;;;5114193;28;20043;-66
2023/09/12 00:42:51;;;;;;;9.32;7.68;;;24.50;74.50;;;;;;5114906;28;20391;-66
2023/09/12 00:45:17;;;;;;;9.32;7.60;;;24.40;74.50;;;;;;5115022;28;20099;-66
2023/09/12 00:47:42;;;;;;;10.02;7.38;;;24.50;74.50;;;;;;5113795;28;20378;-66
2023/09/12 00:50:08;;;;;;;8.70;7.53;;;24.50;74.50;;;;;;5096285;28;20047;-66
2023/09/12 00:52:34;;;;;;;8.43;7.15;;;24.40;74.50;;;;;;5114693;28;20036;-66
2023/09/12 00:55:00;;;;;;;8.70;6.88;;;24.50;74.50;;;;;;5111979;28;20079;-66
2023/09/12 00:57:28;;;;;;;9.35;7.15;;;24.50;74.50;;;;;;5113682;28;20071;-66
2023/09/12 00:59:54;;;;;;;9.27;7.10;;;24.40;74.40;;;;;;5113341;28;20051;-66
2023/09/12 01:02:20;;;;;;;8.77;6.93;;;24.40;74.40;;;;;;5112841;28;20047;-67
2023/09/12 01:04:46;;;;;;;8.27;7.07;;;24.40;74.40;;;;;;5114179;27;20039;-66
2023/09/12 01:07:11;;;;;;;7.97;6.50;;;24.40;74.40;;;;;;5111576;28;20045;-66
2023/09/12 01:09:37;;;;;;;8.65;6.63;;;24.40;74.40;;;;;;5075243;28;20036;-66
2023/09/12 01:12:03;;;;;;;9.93;6.97;;;24.40;74.40;;;;;;5092760;28;20044;-66
2023/09/12 01:14:29;;;;;;;8.32;7.32;;;24.40;74.40;;;;;;5091947;28;20036;-66
2023/09/12 01:16:55;;;;;;;8.10;6.90;;;24.40;74.40;;;;;;5093604;28;20036;-66
2023/09/12 01:19:21;;;;;;;7.95;7.13;;;24.40;74.40;;;;;;5092505;28;20476;-66
2023/09/12 01:22:05;;;;;;;8.40;6.90;;;24.40;74.40;;;;;;5091247;28;20077;-66
2023/09/12 01:24:48;;;;;;;9.00;7.10;;;24.40;74.40;;;;;;5093791;28;20372;-66
2023/09/12 01:27:36;;;;;;;9.82;7.38;;;24.40;74.40;;;;;;5075920;28;20040;-66
2023/09/12 01:30:03;;;;;;;8.80;7.35;;;24.40;74.50;;;;;;5092361;28;20040;-66
2023/09/12 01:32:29;;;;;;;8.48;6.95;;;24.40;74.40;;;;;;5074703;28;20044;-66
2023/09/12 01:34:55;;;;;;;8.45;6.40;;;24.40;74.40;;;;;;5091747;28;20040;-66
2023/09/12 01:37:20;;;;;;;8.02;6.82;;;24.40;74.50;;;;;;5094111;28;20059;-67
2023/09/12 01:39:46;;;;;;;8.52;6.78;;;24.40;74.40;;;;;;5093270;28;20072;-66
2023/09/12 01:42:13;;;;;;;10.27;7.22;;;24.40;74.40;;;;;;5093414;28;20098;-66
2023/09/12 01:44:39;;;;;;;9.30;6.73;;;24.40;74.40;;;;;;5091167;28;20119;-67
2023/09/12 01:47:05;;;;;;;8.13;6.85;;;24.40;74.40;;;;;;5092427;28;20136;-66
2023/09/12 01:49:30;;;;;;;8.43;6.65;;;24.40;74.40;;;;;;5092320;28;20043;-66
2023/09/12 01:51:56;;;;;;;9.00;7.03;;;24.40;74.40;;;;;;5091313;28;20044;-66
2023/09/12 01:54:22;;;;;;;8.20;6.45;;;24.40;74.40;;;;;;5074921;28;20126;-66
2023/09/12 01:56:47;;;;;;;7.65;6.63;;;24.40;74.40;;;;;;5091904;28;20121;-66
2023/09/12 01:59:13;;;;;;;7.38;6.57;;;24.40;74.40;;;;;;5093143;28;20036;-67
2023/09/12 02:01:39;;;;;;;8.43;6.85;;;24.40;74.40;;;;;;5091486;28;20048;-67
2023/09/12 02:04:08;;;;;;;7.18;6.40;;;24.40;74.40;;;;;;5091747;28;20472;-66
2023/09/12 02:06:37;;;;;;;8.68;7.30;;;24.40;74.40;;;;;;5092343;28;20044;-67
2023/09/12 02:09:03;;;;;;;8.73;6.68;;;24.30;74.40;;;;;;5091435;28;20044;-67
2023/09/12 02:11:28;;;;;;;8.00;7.20;;;24.30;74.40;;;;;;5092321;28;20093;-66
2023/09/12 02:13:54;;;;;;;8.23;6.57;;;24.30;74.40;;;;;;5092933;28;20083;-67
2023/09/12 02:16:19;;;;;;;10.68;7.40;;;24.30;74.40;;;;;;5092794;28;20051;-66
2023/09/12 02:18:45;;;;;;;7.78;6.65;;;24.30;74.40;;;;;;5092256;28;20115;-66
2023/09/12 02:21:10;;;;;;;8.15;6.82;;;24.30;74.40;;;;;;5092695;28;20112;-69
2023/09/12 02:23:36;;;;;;;8.75;7.00;;;24.30;74.40;;;;;;5092637;28;20046;-67
2023/09/12 02:26:02;;;;;;;7.93;6.65;;;24.30;74.40;;;;;;5091035;28;20075;-66
2023/09/12 02:28:27;;;;;;;8.98;6.72;;;24.30;74.40;;;;;;5091397;28;20044;-66
2023/09/12 02:30:53;;;;;;;7.70;6.65;;;24.30;74.40;;;;;;5092370;28;20044;-66
2023/09/12 02:33:19;;;;;;;7.78;6.97;;;24.30;74.40;;;;;;5090732;28;20115;-66
2023/09/12 02:35:44;;;;;;;7.95;6.60;;;24.30;74.40;;;;;;5091662;28;20055;-66
2023/09/12 02:38:10;;;;;;;8.88;7.13;;;24.30;74.40;;;;;;5091391;28;20051;-67
2023/09/12 02:40:35;;;;;;;7.78;6.35;;;24.30;74.40;;;;;;5091637;28;20093;-67
2023/09/12 02:43:01;;;;;;;7.60;6.55;;;24.30;74.40;;;;;;5092630;28;20044;-66
2023/09/12 02:45:27;;;;;;;8.43;7.07;;;24.30;74.40;;;;;;5092710;28;20040;-66
2023/09/12 02:47:52;;;;;;;7.97;6.82;;;24.30;74.40;;;;;;5091636;28;20131;-67
2023/09/12 02:50:18;;;;;;;6.80;6.10;;;24.30;74.40;;;;;;5092282;28;20039;-66
2023/09/12 02:52:43;;;;;;;7.97;6.35;;;24.30;74.40;;;;;;5091657;28;20472;-67
2023/09/12 02:55:09;;;;;;;8.98;7.18;;;24.30;74.40;;;;;;5092538;28;20036;-66
2023/09/12 02:57:34;;;;;;;7.97;6.70;;;24.30;74.40;;;;;;5092288;28;20131;-66
2023/09/12 03:00:00;;;;;;;6.82;5.90;;;24.30;74.40;;;;;;5091755;28;20044;-66
2023/09/12 03:02:29;;;;;;;7.93;6.47;;;24.30;74.40;;;;;;5092666;28;20044;-66
2023/09/12 03:04:54;;;;;;;7.55;6.30;;;24.20;74.40;;;;;;5092276;28;20051;-66
2023/09/12 03:07:20;;;;;;;8.18;6.43;;;24.30;74.40;;;;;;5090626;28;20108;-66
2023/09/12 03:09:49;;;;;;;7.68;6.78;;;24.20;74.30;;;;;;5091944;28;20526;-66
2023/09/12 03:12:15;;;;;;;7.70;6.20;;;24.20;74.40;;;;;;5092296;28;20043;-67
2023/09/12 03:14:40;;;;;;;7.50;6.57;;;24.30;74.40;;;;;;5091481;28;20086;-67
2023/09/12 03:17:06;;;;;;;7.50;6.75;;;24.20;74.40;;;;;;5092640;28;20052;-66
2023/09/12 03:19:31;;;;;;;7.20;6.20;;;24.20;74.40;;;;;;5092169;28;20033;-66
2023/09/12 03:21:57;;;;;;;8.82;6.55;;;24.20;74.40;;;;;;5091360;28;20040;-67
2023/09/12 03:24:24;;;;;;;7.78;5.97;;;24.20;74.40;;;;;;5092599;28;20047;-67
2023/09/12 03:26:50;;;;;;;7.07;6.30;;;24.30;74.50;;;;;;5090684;28;20097;-67
2023/09/12 03:29:16;;;;;;;9.15;6.32;;;24.20;74.40;;;;;;5091388;28;20052;-66
2023/09/12 03:31:42;;;;;;;8.35;6.40;;;24.20;74.40;;;;;;5092067;28;20048;-67
2023/09/12 03:34:07;;;;;;;6.70;5.80;;;24.20;74.40;;;;;;5090796;28;20071;-65
2023/09/12 03:36:33;;;;;;;8.88;6.47;;;24.20;74.40;;;;;;5091060;28;20051;-66
2023/09/12 03:38:58;;;;;;;7.65;6.22;;;24.20;74.40;;;;;;5092533;28;20036;-66
2023/09/12 03:41:25;;;;;;;7.25;6.25;;;24.20;74.40;;;;;;5094326;28;20196;-67
2023/09/12 03:43:54;;;;;;;7.45;6.18;;;24.20;74.40;;;;;;5098214;28;20046;-66
2023/09/12 03:46:20;;;;;;;8.68;5.70;;;24.20;74.40;;;;;;5113759;28;20047;-66
2023/09/12 03:48:45;;;;;;;8.23;5.95;;;24.20;74.40;;;;;;5115747;28;20040;-67
2023/09/12 03:51:11;;;;;;;8.25;6.20;;;24.20;74.40;;;;;;5115284;28;20039;-66
2023/09/12 03:53:37;;;;;;;7.85;6.32;;;24.20;74.40;;;;;;5114492;28;20039;-66
2023/09/12 03:56:02;;;;;;;7.40;6.40;;;24.20;74.40;;;;;;5114761;28;20391;-66
2023/09/12 03:58:28;;;;;;;8.43;6.20;;;24.20;74.40;;;;;;5115669;28;20042;-66
2023/09/12 04:00:54;;;;;;;7.38;6.13;;;24.20;74.40;;;;;;5094972;28;20055;-66
2023/09/12 04:03:20;;;;;;;8.60;6.85;;;24.20;74.40;;;;;;5094538;28;20035;-66
2023/09/12 04:05:50;;;;;;;8.73;6.13;;;24.20;74.40;;;;;;5094647;28;20051;-66
2023/09/12 04:08:15;;;;;;;7.60;6.60;;;24.20;74.40;;;;;;5094832;28;20477;-66
2023/09/12 04:10:41;;;;;;;6.93;6.07;;;24.20;74.40;;;;;;5092278;28;20181;-66
2023/09/12 04:13:06;;;;;;;7.40;5.75;;;24.20;74.40;;;;;;5095394;28;20149;-66
2023/09/12 04:15:32;;;;;;;6.95;6.13;;;24.20;74.40;;;;;;5095220;28;20040;-67
2023/09/12 04:17:58;;;;;;;7.75;6.45;;;24.20;74.40;;;;;;5094174;28;20113;-66
2023/09/12 04:20:23;;;;;;;7.07;6.32;;;24.20;74.40;;;;;;5093562;28;20419;-67
2023/09/12 04:22:49;;;;;;;7.57;6.40;;;24.20;74.40;;;;;;5094677;28;20040;-66
2023/09/12 04:25:14;;;;;;;7.35;6.03;;;24.20;74.50;;;;;;5094123;28;20048;-66
2023/09/12 04:27:41;;;;;;;8.00;6.43;;;24.20;74.40;;;;;;5094332;28;20043;-66
2023/09/12 04:30:07;;;;;;;7.18;6.32;;;24.10;74.40;;;;;;5093013;28;20040;-66
2023/09/12 04:32:33;;;;;;;6.63;5.65;;;24.20;74.40;;;;;;5093974;28;20488;-66
2023/09/12 04:34:59;;;;;;;7.88;6.20;;;24.10;74.40;;;;;;5094445;28;20040;-66
2023/09/12 04:37:24;;;;;;;7.25;5.78;;;24.20;74.40;;;;;;5094517;28;20051;-66
2023/09/12 04:39:50;;;;;;;7.57;6.10;;;24.20;74.40;;;;;;5093842;28;20055;-66
2023/09/12 04:42:15;;;;;;;6.47;5.78;;;24.20;74.40;;;;;;5094482;28;20093;-66
2023/09/12 04:44:41;;;;;;;6.68;5.80;;;24.20;74.40;;;;;;5094228;28;20459;-66
2023/09/12 04:47:08;;;;;;;8.50;6.47;;;24.20;74.40;;;;;;5093894;28;20040;-66
2023/09/12 04:49:33;;;;;;;8.18;6.40;;;24.10;74.40;;;;;;5092904;28;20099;-66
2023/09/12 04:51:59;;;;;;;8.40;6.13;;;24.20;74.40;;;;;;5093645;28;20463;-67
2023/09/12 04:54:24;;;;;;;7.82;5.85;;;24.10;74.40;;;;;;5093521;28;20131;-66
2023/09/12 04:56:50;;;;;;;7.20;6.30;;;24.10;74.40;;;;;;5093784;28;20036;-66
2023/09/12 04:59:16;;;;;;;6.88;5.82;;;24.10;74.40;;;;;;5093477;28;20123;-67
2023/09/12 05:01:41;;;;;;;7.22;5.93;;;24.10;74.40;;;;;;5093775;28;20569;-67
2023/09/12 05:04:07;;;;;;;7.50;6.20;;;24.10;74.40;;;;;;5094181;28;20047;-67
2023/09/12 05:06:32;;;;;;;8.00;6.30;;;24.10;74.40;;;;;;5091628;28;20780;-66
2023/09/12 05:08:58;;;;;;;7.50;5.90;;;24.10;74.40;;;;;;5094008;28;20032;-66
2023/09/12 05:11:24;;;;;;;7.53;6.40;;;24.10;74.40;;;;;;5093833;28;20387;-67
2023/09/12 05:13:50;;;;;;;7.35;6.00;;;24.10;74.40;;;;;;5093227;28;20064;-67
2023/09/12 05:16:15;;;;;;;6.93;6.00;;;24.10;74.40;;;;;;5094113;28;20124;-67
2023/09/12 05:18:41;;;;;;;6.85;5.90;;;24.10;74.40;;;;;;5092262;28;20040;-66
2023/09/12 05:21:07;;;;;;;6.70;5.47;;;24.10;74.40;;;;;;5093306;28;20551;-66
2023/09/12 05:23:32;;;;;;;7.55;6.20;;;24.10;74.40;;;;;;5092611;28;20040;-66
2023/09/12 05:25:58;;;;;;;6.18;5.18;;;24.10;74.40;;;;;;5093139;28;20391;-66
2023/09/12 05:28:23;;;;;;;6.85;6.10;;;24.10;74.40;;;;;;5093051;28;20457;-66
2023/09/12 05:30:49;;;;;;;6.63;5.82;;;24.10;74.40;;;;;;5093598;28;20079;-66
2023/09/12 05:33:14;;;;;;;7.15;5.72;;;24.10;74.40;;;;;;5093721;28;20040;-66
2023/09/12 05:35:40;;;;;;;6.75;5.70;;;24.10;74.40;;;;;;5091216;28;20087;-66
2023/09/12 05:38:06;;;;;;;6.10;5.50;;;24.10;74.40;;;;;;5093127;28;20052;-66
2023/09/12 05:40:31;;;;;;;6.40;5.43;;;24.10;74.40;;;;;;5093439;28;20100;-67
2023/09/12 05:42:57;;;;;;;7.13;5.70;;;24.10;74.40;;;;;;5092730;28;20044;-66
2023/09/12 05:45:23;;;;;;;6.55;5.57;;;24.10;74.40;;;;;;5093584;28;20040;-66
2023/09/12 05:47:50;;;;;;;7.57;5.50;;;24.00;74.40;;;;;;5108584;28;20052;-67
2023/09/12 05:50:16;;;;;;;6.32;5.50;;;24.10;74.40;;;;;;5092162;28;20048;-65
2023/09/12 05:52:42;;;;;;;6.78;5.85;;;24.10;74.40;;;;;;5091539;28;20059;-67
2023/09/12 05:55:08;;;;;;;6.40;5.15;;;24.10;74.40;;;;;;5108260;28;20048;-66
2023/09/12 05:57:34;;;;;;;6.53;5.43;;;24.10;74.40;;;;;;5110891;28;20035;-66
2023/09/12 05:59:59;;;;;;;8.02;6.00;;;24.10;74.40;;;;;;5113364;28;20047;-66
2023/09/12 06:02:26;;;;;;;7.97;6.40;;;24.00;74.40;;;;;;5113677;28;20086;-64
2023/09/12 06:04:52;;;;;;;6.60;5.35;;;24.10;74.60;;;;;;5110708;28;20048;-65
2023/09/12 06:07:17;;;;;;;6.32;5.38;;;24.10;74.50;;;;;;5112725;28;20036;-65
2023/09/12 06:09:43;;;;;;;6.97;5.57;;;24.10;74.50;;;;;;5112065;28;20453;-67
2023/09/12 06:12:08;;;;;;;8.05;5.63;;;24.10;74.60;;;;;;5113115;28;20044;-65
2023/09/12 06:14:34;;;;;;;7.43;5.40;;;24.10;74.50;;;;;;5111782;28;20494;-65
2023/09/12 06:17:00;;;;;;;8.40;6.32;;;24.10;74.50;;;;;;5112329;28;20039;-64
2023/09/12 06:19:25;;;;;;;13.35;9.38;;;24.10;74.60;;;;;;5110961;28;20138;-64
2023/09/12 06:21:51;;;;;;;17.98;13.07;;;24.10;74.30;;;;;;5091019;28;20040;-64
2023/09/12 06:24:19;;;;;;;21.58;16.65;;;24.10;74.00;;;;;;5089711;28;20044;-64
2023/09/12 06:26:44;;;;;;;23.88;17.65;;;24.10;73.60;;;;;;5089052;28;20051;-65
2023/09/12 06:29:10;;;;;;;21.40;17.40;;;24.00;73.20;;;;;;5084851;28;20483;-66
2023/09/12 06:31:35;;;;;;;22.98;16.88;;;24.00;73.10;;;;;;5090070;28;20158;-64
2023/09/12 06:34:01;;;;;;;24.90;18.65;;;23.90;73.00;;;;;;5091451;28;20036;-65
2023/09/12 06:36:29;;;;;;;26.15;18.80;;;23.90;72.90;;;;;;5090382;28;20040;-64
2023/09/12 06:38:55;;;;;;;24.73;18.95;;;23.90;72.80;;;;;;5091445;28;20094;-64
2023/09/12 06:41:21;;;;;;;25.20;19.13;;;23.80;72.60;;;;;;5091905;28;20372;-64
2023/09/12 06:43:47;;;;;;;29.02;20.40;;;23.80;72.50;;;;;;5091237;28;20176;-64
2023/09/12 06:46:12;;;;;;;27.98;20.23;;;23.70;72.50;;;;;;5090455;28;20471;-64
2023/09/12 06:48:38;;;;;;;30.90;21.13;;;23.70;72.50;;;;;;5091742;28;20044;-65
2023/09/12 06:51:08;;;;;;;32.25;21.73;;;23.70;72.50;;;;;;5091767;28;20033;-64
2023/09/12 06:53:34;;;;;;;30.60;21.40;;;23.70;72.50;;;;;;5088607;28;20404;-64
2023/09/12 06:55:59;;;;;;;31.77;20.85;;;23.60;72.50;;;;;;5090270;28;20470;-64
2023/09/12 06:58:25;;;;;;;28.90;20.92;;;23.60;72.60;;;;;;5071073;28;20041;-64
2023/09/12 07:00:51;;;;;;;30.92;21.13;;;23.60;72.60;;;;;;5071333;28;20044;-65
2023/09/12 07:03:16;;;;;;;34.15;21.70;;;23.60;72.60;;;;;;5072266;28;20040;-64
2023/09/12 07:05:42;;;;;;;31.23;21.65;;;23.60;72.70;;;;;;5071892;28;20075;-64
2023/09/12 07:08:08;;;;;;;31.50;21.00;;;23.60;72.70;;;;;;5070991;28;20458;-64
2023/09/12 07:10:34;;;;;;;33.90;21.88;;;23.60;72.70;;;;;;5071834;28;20488;-66
2023/09/12 07:12:59;;;;;;;32.10;20.63;;;23.50;72.60;;;;;;5069275;28;20105;-65
2023/09/12 07:15:25;;;;;;;33.30;22.38;;;23.60;72.70;;;;;;5071956;28;20041;-66
2023/09/12 07:17:51;;;;;;;36.05;20.25;;;23.50;72.70;;;;;;5074662;28;20563;-66
2023/09/12 07:20:17;;;;;;;29.77;19.17;;;23.60;72.80;;;;;;5074904;28;20032;-66
2023/09/12 07:22:43;;;;;;;27.45;18.23;;;23.60;72.80;;;;;;5075430;28;20169;-75
2023/09/12 07:25:11;;;;;;;27.17;17.85;;;23.60;73.00;;;;;;5092025;28;20073;-67
2023/09/12 07:27:37;;;;;;;30.50;18.95;;;23.60;73.00;;;;;;5091750;28;20480;-65
2023/09/12 07:30:04;;;;;;;27.60;17.13;;;23.60;73.00;;;;;;5095325;28;20044;-66
2023/09/12 07:32:29;;;;;;;29.63;18.05;;;23.70;73.10;;;;;;5093457;28;20429;-66
2023/09/12 07:34:55;;;;;;;26.17;17.15;;;23.70;73.10;;;;;;5094618;28;20119;-66
2023/09/12 07:37:20;;;;;;;27.23;16.80;;;23.70;73.10;;;;;;5095761;28;20055;-66
2023/09/12 07:39:46;;;;;;;25.33;17.23;;;23.70;73.10;;;;;;5095728;28;20177;-66
2023/09/12 07:42:12;;;;;;;27.30;15.38;;;23.70;73.10;;;;;;5095119;28;20044;-65
2023/09/12 07:44:37;;;;;;;24.38;16.08;;;23.70;73.10;;;;;;5095509;28;20476;-66
2023/09/12 07:47:07;;;;;;;27.95;17.02;;;23.70;73.10;;;;;;5095908;28;20071;-66
2023/09/12 07:49:32;;;;;;;23.67;15.90;;;23.70;73.10;;;;;;5094780;28;20152;-66
2023/09/12 07:51:58;;;;;;;24.35;15.40;;;23.70;73.10;;;;;;5095402;28;20036;-66
2023/09/12 07:54:24;;;;;;;24.27;15.00;;;23.80;73.20;;;;;;5095580;28;20040;-66
2023/09/12 07:56:49;;;;;;;20.88;14.43;;;23.70;73.10;;;;;;5094586;28;20051;-66
2023/09/12 07:59:15;;;;;;;19.48;12.52;;;23.80;73.20;;;;;;5094003;28;20044;-66
2023/09/12 08:01:40;;;;;;;19.38;12.80;;;23.80;73.20;;;;;;5095014;28;20058;-66
2023/09/12 08:04:06;;;;;;;17.10;11.93;;;23.80;73.30;;;;;;5094724;28;20090;-66
2023/09/12 08:06:38;;;;;;;21.23;12.35;;;23.80;73.30;;;;;;5094005;28;20048;-66
2023/09/12 08:09:03;;;;;;;17.85;12.68;;;23.80;73.30;;;;;;5095590;28;20090;-66
2023/09/12 08:11:29;;;;;;;18.23;12.52;;;23.80;73.30;;;;;;5094299;28;20399;-66
2023/09/12 08:13:55;;;;;;;17.35;10.98;;;23.80;73.30;;;;;;5095111;28;20069;-67
2023/09/12 08:16:21;;;;;;;17.80;12.43;;;23.80;73.30;;;;;;5094365;28;20044;-66
2023/09/12 08:18:47;;;;;;;16.48;11.05;;;23.80;73.40;;;;;;5094620;28;20043;-67
2023/09/12 08:21:12;;;;;;;16.13;10.68;;;23.80;73.30;;;;;;5095260;28;20055;-67
2023/09/12 08:23:38;;;;;;;13.95;10.23;;;23.90;73.40;;;;;;5094079;28;20036;-69
2023/09/12 08:26:07;;;;;;;15.65;10.07;;;23.90;73.40;;;;;;5094987;28;20044;-66
2023/09/12 08:28:33;;;;;;;14.38;10.65;;;23.90;73.50;;;;;;5094470;28;20476;-66
2023/09/12 08:30:58;;;;;;;16.02;10.35;;;23.90;73.50;;;;;;5094122;28;20047;-66
2023/09/12 08:33:24;;;;;;;15.52;10.05;;;23.90;73.50;;;;;;5094546;28;20055;-66
2023/09/12 08:35:50;;;;;;;13.23;9.98;;;23.90;73.50;;;;;;5094650;28;20064;-66
2023/09/12 08:38:19;;;;;;;14.35;10.38;;;23.90;73.50;;;;;;5092321;28;20056;-67
2023/09/12 08:40:49;;;;;;;14.60;10.02;;;23.90;73.50;;;;;;5094289;28;20078;-66
2023/09/12 08:43:14;;;;;;;14.02;9.55;;;23.90;74.10;;;;;;5093539;28;20040;-66
2023/09/12 08:45:40;;;;;;;14.68;10.07;;;23.90;73.50;;;;;;5093610;28;20101;-66
2023/09/12 08:48:06;;;;;;;12.95;9.07;;;23.90;73.50;;;;;;5059977;28;20068;-66
2023/09/12 08:50:33;;;;;;;14.00;10.25;;;23.90;73.50;;;;;;5059769;28;20105;-67
2023/09/12 08:52:59;;;;;;;15.27;10.40;;;24.00;73.50;;;;;;5093910;28;20052;-66
2023/09/12 08:55:24;;;;;;;13.23;9.30;;;23.90;73.50;;;;;;5094625;28;20067;-66
2023/09/12 08:57:50;;;;;;;11.95;9.18;;;24.00;73.60;;;;;;5092913;28;20032;-66
2023/09/12 09:00:16;;;;;;;13.23;9.38;;;23.90;73.50;;;;;;5058707;28;20119;-66
2023/09/12 09:02:42;;;;;;;12.05;8.65;;;24.00;73.60;;;;;;5093680;28;20032;-67
2023/09/12 09:05:11;;;;;;;11.73;8.95;;;24.00;73.60;;;;;;5093072;28;20362;-66
2023/09/12 09:07:40;;;;;;;13.10;8.70;;;24.00;73.60;;;;;;5093303;28;20051;-67
2023/09/12 09:10:14;;;;;;;14.07;8.88;;;24.00;73.60;;;;;;5094212;28;20048;-66
2023/09/12 09:12:39;;;;;;;11.57;9.00;;;24.00;73.60;;;;;;5093046;28;20131;-66
2023/09/12 09:15:25;;;;;;;12.50;9.20;;;24.00;73.60;;;;;;5093942;28;20123;-66
2023/09/12 09:17:51;;;;;;;12.32;9.02;;;24.00;73.60;;;;;;5093956;28;20040;-67
2023/09/12 09:20:27;;;;;;;12.25;8.98;;;24.00;73.60;;;;;;5093302;28;20077;-67
2023/09/12 09:23:08;;;;;;;11.38;8.35;;;24.00;73.60;;;;;;5093755;28;20524;-66
2023/09/12 09:25:36;;;;;;;13.43;9.02;;;24.00;73.60;;;;;;5093600;28;20036;-67
2023/09/12 09:28:15;;;;;;;13.05;9.35;;;24.00;73.60;;;;;;5091993;28;20071;-66
2023/09/12 09:30:44;;;;;;;10.52;8.35;;;24.00;73.60;;;;;;5093260;28;20055;-66
2023/09/12 09:33:10;;;;;;;10.98;8.60;;;24.00;73.60;;;;;;5093612;28;20052;-66
2023/09/12 09:35:41;;;;;;;11.13;8.73;;;24.00;73.50;;;;;;5094333;28;20067;-67
2023/09/12 09:38:07;;;;;;;10.18;8.30;;;24.00;73.50;;;;;;5113199;28;20060;-67
2023/09/12 09:40:36;;;;;;;9.95;8.05;;;24.00;73.50;;;;;;5107841;28;20035;-67
2023/09/12 09:43:02;;;;;;;11.32;8.25;;;24.00;73.60;;;;;;5099331;28;20036;-66
2023/09/12 09:45:32;;;;;;;11.70;8.80;;;24.00;73.60;;;;;;5106296;28;20485;-66
2023/09/12 09:47:59;;;;;;;11.32;8.45;;;24.00;73.60;;;;;;5105842;28;20047;-66
2023/09/12 09:50:25;;;;;;;10.23;8.60;;;24.00;73.60;;;;;;5091964;28;20036;-67
2023/09/12 09:52:55;;;;;;;11.02;8.10;;;24.00;73.60;;;;;;5091827;28;20104;-67
2023/09/12 09:55:20;;;;;;;13.10;8.25;;;24.10;73.60;;;;;;5091152;28;20036;-67
2023/09/12 09:57:48;;;;;;;13.57;8.40;;;24.10;73.60;;;;;;5092709;28;20062;-67
2023/09/12 10:00:14;;;;;;;10.98;8.80;;;24.00;73.50;;;;;;5093780;28;20050;-67
2023/09/12 10:02:40;;;;;;;10.95;8.13;;;24.00;73.50;;;;;;5111333;28;20070;-67
2023/09/12 10:05:06;;;;;;;11.65;8.52;;;24.10;73.60;;;;;;5113414;28;20446;-67
2023/09/12 10:07:33;;;;;;;11.02;8.25;;;24.10;73.60;;;;;;5112108;28;20046;-66
2023/09/12 10:09:59;;;;;;;9.65;7.78;;;24.10;73.60;;;;;;5112164;28;20413;-67
2023/09/12 10:12:25;;;;;;;9.93;8.02;;;24.10;73.60;;;;;;5111890;28;20048;-66
2023/09/12 10:14:53;;;;;;;10.05;8.13;;;24.10;73.70;;;;;;5113001;28;20088;-67
2023/09/12 10:17:19;;;;;;;10.80;8.40;;;24.10;73.80;;;;;;5111304;28;20502;-67
2023/09/12 10:19:54;;;;;;;11.43;7.82;;;24.10;73.80;;;;;;5111995;28;20036;-67
2023/09/12 10:22:23;;;;;;;11.52;8.48;;;24.20;73.90;;;;;;5112202;28;20542;-66
2023/09/12 10:24:49;;;;;;;10.85;7.88;;;24.20;73.90;;;;;;5112003;28;20039;-67
2023/09/12 10:27:15;;;;;;;9.90;8.00;;;24.20;73.90;;;;;;5112968;28;20053;-66
2023/09/12 10:29:40;;;;;;;9.77;8.48;;;24.20;73.90;;;;;;5112986;28;20043;-66
2023/09/12 10:32:06;;;;;;;10.52;8.10;;;24.30;73.90;;;;;;5112159;28;20043;-67
2023/09/12 10:34:32;;;;;;;9.20;7.85;;;24.30;73.90;;;;;;5109194;28;20071;-67
2023/09/12 10:37:01;;;;;;;9.43;7.43;;;24.30;73.90;;;;;;5091708;28;20048;-67
2023/09/12 10:39:27;;;;;;;9.35;7.75;;;24.30;73.80;;;;;;5091743;28;20048;-67
2023/09/12 10:41:53;;;;;;;11.18;8.40;;;24.30;73.80;;;;;;5092130;28;20037;-66
2023/09/12 10:44:19;;;;;;;10.98;7.72;;;24.30;73.80;;;;;;5091736;28;20044;-66
2023/09/12 10:46:45;;;;;;;10.20;7.60;;;24.40;73.80;;;;;;5090998;28;20043;-67
2023/09/12 10:49:13;;;;;;;9.10;7.78;;;24.40;73.80;;;;;;5092618;28;20050;-66
2023/09/12 10:51:43;;;;;;;8.27;7.07;;;24.40;73.80;;;;;;5094236;28;20048;-67
2023/09/12 10:54:12;;;;;;;10.23;7.68;;;24.40;73.80;;;;;;5096943;28;20074;-66
2023/09/12 10:56:41;;;;;;;8.60;7.70;;;24.40;73.80;;;;;;5078428;28;20047;-67
2023/09/12 10:59:07;;;;;;;10.98;7.82;;;24.40;73.80;;;;;;5094290;28;20504;-68
2023/09/12 11:01:34;;;;;;;9.35;7.43;;;24.40;73.80;;;;;;5096328;28;20094;-67
2023/09/12 11:04:18;;;;;;;9.75;7.75;;;24.40;73.90;;;;;;5096607;28;20075;-68
2023/09/12 11:06:44;;;;;;;9.23;7.28;;;24.40;73.80;;;;;;5095386;28;20043;-65
2023/09/12 11:09:23;;;;;;;9.07;7.28;;;24.40;73.80;;;;;;5094905;28;20044;-68
2023/09/12 11:12:09;;;;;;;9.23;7.38;;;24.50;74.00;;;;;;5094341;28;20048;-67
2023/09/12 11:14:37;;;;;;;9.97;7.60;;;24.50;74.00;;;;;;5078141;28;20503;-67
2023/09/12 11:17:23;;;;;;;9.23;7.93;;;24.50;73.90;;;;;;5096360;28;20058;-67
2023/09/12 11:19:52;;;;;;;8.60;7.25;;;24.50;73.90;;;;;;5095953;28;20033;-68
2023/09/12 11:22:21;;;;;;;9.10;7.55;;;24.50;73.90;;;;;;5096353;28;20043;-67
2023/09/12 11:24:47;;;;;;;8.88;7.45;;;24.50;73.80;;;;;;5095795;28;20048;-67
2023/09/12 11:27:13;;;;;;;9.93;7.50;;;24.50;73.80;;;;;;5095182;28;20391;-67
2023/09/12 11:29:39;;;;;;;8.32;6.70;;;24.50;73.90;;;;;;5094441;28;20082;-67
2023/09/12 11:32:05;;;;;;;8.45;7.38;;;24.50;73.90;;;;;;5095727;28;20391;-67
2023/09/12 11:34:41;;;;;;;9.45;7.57;;;24.50;73.80;;;;;;5094666;28;20507;-68
2023/09/12 11:37:22;;;;;;;9.52;7.25;;;24.50;73.80;;;;;;5095725;28;20060;-67
2023/09/12 11:39:50;;;;;;;9.38;7.07;;;24.60;73.90;;;;;;5094568;28;20055;-67
2023/09/12 11:42:15;;;;;;;;;;;24.60;74.00;;;;;;5095477;28;20488;-67
2023/09/12 11:44:41;;;;;;;8.75;7.07;;;24.60;74.00;;;;;;5095571;28;19931;-68
2023/09/12 11:47:07;;;;;;;9.82;7.40;;;24.50;73.90;;;;;;5077457;28;20054;-68
2023/09/12 11:49:37;;;;;;;10.18;7.20;;;24.50;73.90;;;;;;5093757;28;20063;-67
2023/09/12 11:52:04;;;;;;;8.95;7.35;;;24.60;74.00;;;;;;5094869;28;20050;-67
2023/09/12 11:54:31;;;;;;;7.72;6.75;;;24.60;74.00;;;;;;5094303;28;20044;-64
2023/09/12 11:56:59;;;;;;;11.20;6.53;;;24.60;74.00;;;;;;5094992;28;20040;-67
2023/09/12 11:59:28;;;;;;;10.70;7.32;;;24.50;73.80;;;;;;5075825;28;20046;-68
2023/09/12 12:01:54;;;;;;;8.82;7.10;;;24.60;74.00;;;;;;5070551;28;20524;-69
2023/09/12 12:04:23;;;;;;;10.18;6.45;;;24.60;74.20;;;;;;5094221;28;20475;-68
2023/09/12 12:06:50;;;;;;;10.00;7.13;;;24.60;74.30;;;;;;5095084;28;20039;-69
2023/09/12 12:09:18;;;;;;;8.85;7.32;;;24.60;74.20;;;;;;5076532;28;20530;-68
2023/09/12 12:11:43;;;;;;;8.65;7.32;;;24.70;74.30;;;;;;5093472;28;20052;-67
2023/09/12 12:14:14;;;;;;;8.98;6.90;;;24.70;74.30;;;;;;5077193;28;20075;-67
2023/09/12 12:16:40;;;;;;;;;;;24.60;74.80;;;;;;5093153;28;20040;-66
2023/09/12 12:19:06;;;;;;;10.48;6.95;;;24.70;74.30;;;;;;5095304;28;19924;-68
2023/09/12 12:21:32;;;;;;;8.32;6.68;;;24.70;74.30;;;;;;5094691;28;20072;-68
2023/09/12 12:24:00;;;;;;;9.15;6.82;;;24.70;74.30;;;;;;5092628;28;20529;-68
2023/09/12 12:26:26;;;;;;;9.07;7.00;;;24.70;74.30;;;;;;5093050;28;20036;-65
2023/09/12 12:28:52;;;;;;;8.75;6.85;;;24.70;74.30;;;;;;5092997;28;20495;-67
2023/09/12 12:31:18;;;;;;;8.82;6.82;;;24.70;74.20;;;;;;5097956;28;20072;-68
2023/09/12 12:33:53;;;;;;;10.10;6.72;;;24.80;74.20;;;;;;5093157;28;20523;-68
2023/09/12 12:36:19;;;;;;;10.10;6.78;;;24.80;74.30;;;;;;5090700;28;20036;-68
2023/09/12 12:38:46;;;;;;;10.73;7.43;;;24.80;74.30;;;;;;5092896;28;20083;-68